createdAt,value
2023-02-12T00:00:54.537Z,54.78
2023-02-12T00:01:56.409Z,55.13
2023-02-12T00:02:59.148Z,61.05
2023-02-12T00:04:01.168Z,54.17
2023-02-12T00:05:03.968Z,49.08
2023-02-12T00:06:06.427Z,44.83
2023-02-12T00:07:09.753Z,53.60
2023-02-12T00:08:12.027Z,56.55
2023-02-12T00:09:16.113Z,45.97
2023-02-12T00:10:18.184Z,44.55
2023-02-12T00:11:23.138Z,51.13
2023-02-12T00:12:25.017Z,52.05
2023-02-12T00:13:27.808Z,55.38
2023-02-12T00:14:29.655Z,48.05
2023-02-12T00:15:32.442Z,49.42
2023-02-12T00:16:34.456Z,46.65
2023-02-12T00:17:37.561Z,52.05
2023-02-12T00:18:39.389Z,47.38
2023-02-12T00:19:42.595Z,53.15
2023-02-12T00:20:44.411Z,49.45
2023-02-12T00:21:47.158Z,51.50
2023-02-12T00:22:49.051Z,43.05
2023-02-12T00:23:51.848Z,52.20
2023-02-12T00:24:55.186Z,53.38
2023-02-12T00:25:58.150Z,52.08
2023-02-12T00:26:59.892Z,50.78
2023-02-12T00:28:02.792Z,50.05
2023-02-12T00:29:04.696Z,50.33
2023-02-12T00:30:08.631Z,52.58
2023-02-12T00:31:12.253Z,48.58
2023-02-12T00:32:19.366Z,47.28
2023-02-12T00:33:21.271Z,56.72
2023-02-12T00:34:24.010Z,51.42
2023-02-12T00:35:25.949Z,46.22
2023-02-12T00:36:31.378Z,48.53
2023-02-12T00:37:33.994Z,45.47
2023-02-12T00:38:37.415Z,50.28
2023-02-12T00:39:39.221Z,52.70
2023-02-12T00:40:43.365Z,52.17
2023-02-12T00:41:45.220Z,49.70
2023-02-12T00:42:48.390Z,43.53
2023-02-12T00:43:50.238Z,43.55
2023-02-12T00:44:53.006Z,56.78
2023-02-12T00:45:55.221Z,82.28
2023-02-12T00:46:58.303Z,56.60
2023-02-12T00:48:00.132Z,55.80
2023-02-12T00:49:03.252Z,42.65
2023-02-12T00:50:06.154Z,60.90
2023-02-12T00:51:09.833Z,61.40
2023-02-12T00:52:11.609Z,69.55
2023-02-12T00:53:14.432Z,138.77
2023-02-12T00:54:16.444Z,49.05
2023-02-12T00:55:19.462Z,44.70
2023-02-12T00:56:22.914Z,51.88
2023-02-12T00:57:26.023Z,46.97
2023-02-12T00:58:28.010Z,48.60
2023-02-12T00:59:31.418Z,46.67
2023-02-12T01:00:33.486Z,48.47
2023-02-12T01:01:36.353Z,51.92
2023-02-12T01:02:38.815Z,45.25
2023-02-12T01:03:43.460Z,50.75
2023-02-12T01:04:45.323Z,42.22
2023-02-12T01:05:48.341Z,50.83
2023-02-12T01:06:50.191Z,41.42
2023-02-12T01:07:53.655Z,41.95
2023-02-12T01:08:55.417Z,41.58
2023-02-12T01:09:58.457Z,41.70
2023-02-12T01:11:02.346Z,42.92
2023-02-12T01:12:07.305Z,52.42
2023-02-12T01:13:10.986Z,55.47
2023-02-12T01:14:13.767Z,49.65
2023-02-12T01:15:15.974Z,72.85
2023-02-12T01:16:37.605Z,69.03
2023-02-12T01:17:39.434Z,57.45
2023-02-12T01:18:42.266Z,58.60
2023-02-12T01:19:44.052Z,54.88
2023-02-12T01:20:46.946Z,44.97
2023-02-12T01:21:48.725Z,44.78
2023-02-12T01:22:51.709Z,42.85
2023-02-12T01:23:53.739Z,57.90
2023-02-12T01:24:56.460Z,49.88
2023-02-12T01:25:59.026Z,39.70
2023-02-12T01:27:01.837Z,45.00
2023-02-12T01:28:05.174Z,54.25
2023-02-12T01:29:08.657Z,46.00
2023-02-12T01:30:12.783Z,47.28
2023-02-12T01:31:18.594Z,39.25
2023-02-12T01:32:20.466Z,40.67
2023-02-12T01:33:23.356Z,38.30
2023-02-12T01:34:25.154Z,43.22
2023-02-12T01:35:28.594Z,49.53
2023-02-12T01:36:31.818Z,45.60
2023-02-12T01:37:36.846Z,43.25
2023-02-12T01:38:38.990Z,43.20
2023-02-12T01:39:41.938Z,50.28
2023-02-12T01:40:43.713Z,85.28
2023-02-12T01:41:47.012Z,50.33
2023-02-12T01:42:49.014Z,40.47
2023-02-12T01:44:12.210Z,41.75
2023-02-12T01:45:46.048Z,63.30
2023-02-12T01:46:51.051Z,53.45
2023-02-12T01:47:53.253Z,43.55
2023-02-12T01:48:56.557Z,48.50
2023-02-12T01:49:58.407Z,43.45
2023-02-12T01:51:03.776Z,37.88
2023-02-12T01:52:08.581Z,40.45
2023-02-12T01:53:13.257Z,39.28
2023-02-12T01:54:18.607Z,45.20
2023-02-12T01:55:20.702Z,48.45
2023-02-12T01:56:24.394Z,39.80
2023-02-12T01:57:27.356Z,42.35
2023-02-12T01:58:32.136Z,41.33
2023-02-12T01:59:36.741Z,35.95
2023-02-12T02:00:40.855Z,49.92
2023-02-12T02:01:44.582Z,42.70
2023-02-12T02:02:50.241Z,49.13
2023-02-12T02:03:55.731Z,46.42
2023-02-12T02:05:00.077Z,35.33
2023-02-12T02:06:08.529Z,32.00
2023-02-12T02:07:12.032Z,32.78
2023-02-12T02:08:15.198Z,41.10
2023-02-12T02:09:19.120Z,31.98
2023-02-12T02:10:20.962Z,33.30
2023-02-12T02:11:43.498Z,30.13
2023-02-12T02:13:04.258Z,35.45
2023-02-12T02:14:25.603Z,29.70
2023-02-12T02:15:31.644Z,33.05
2023-02-12T02:16:35.615Z,37.53
2023-02-12T02:17:51.156Z,29.35
2023-02-12T02:18:56.265Z,27.38
2023-02-12T02:20:26.731Z,29.20
2023-02-12T02:21:50.887Z,37.05
2023-02-12T02:23:03.617Z,31.15
2023-02-12T02:24:17.049Z,41.85
2023-02-12T02:25:37.533Z,31.45
2023-02-12T02:27:07.955Z,32.10
2023-02-12T02:28:23.900Z,30.08
2023-02-12T02:29:54.655Z,31.58
2023-02-12T02:31:01.006Z,31.02
2023-02-12T02:32:06.713Z,29.50
2023-02-12T02:33:16.309Z,29.40
2023-02-12T02:34:21.349Z,34.55
2023-02-12T02:35:29.282Z,29.73
2023-02-12T02:36:36.359Z,29.15
2023-02-12T02:37:42.468Z,34.63
2023-02-12T02:38:48.557Z,28.75
2023-02-12T02:39:54.929Z,35.72
2023-02-12T02:41:02.747Z,37.58
2023-02-12T02:42:10.464Z,32.13
2023-02-12T02:43:16.604Z,29.67
2023-02-12T02:44:25.396Z,31.30
2023-02-12T02:45:30.717Z,33.10
2023-02-12T02:46:37.602Z,31.58
2023-02-12T02:47:43.209Z,31.75
2023-02-12T02:48:49.353Z,28.83
2023-02-12T02:49:55.146Z,32.30
2023-02-12T02:51:00.960Z,35.03
2023-02-12T02:52:06.897Z,28.73
2023-02-12T02:53:12.335Z,28.05
2023-02-12T02:54:16.956Z,32.88
2023-02-12T02:55:53.507Z,28.58
2023-02-12T02:57:00.805Z,28.13
2023-02-12T02:58:07.686Z,32.13
2023-02-12T02:59:12.402Z,32.75
2023-02-12T03:00:20.070Z,31.45
2023-02-12T03:01:23.921Z,31.85
2023-02-12T03:02:30.615Z,28.98
2023-02-12T03:03:34.974Z,32.88
2023-02-12T03:04:40.578Z,30.80
2023-02-12T03:05:44.323Z,31.17
2023-02-12T03:06:49.546Z,37.67
2023-02-12T03:07:53.441Z,30.33
2023-02-12T03:08:58.219Z,31.70
2023-02-12T03:10:02.198Z,30.60
2023-02-12T03:11:09.253Z,32.33
2023-02-12T03:12:14.385Z,37.40
2023-02-12T03:13:21.690Z,33.47
2023-02-12T03:14:26.012Z,34.28
2023-02-12T03:15:34.326Z,31.58
2023-02-12T03:16:39.930Z,28.98
2023-02-12T03:17:45.630Z,35.15
2023-02-12T03:18:51.576Z,39.17
2023-02-12T03:19:56.968Z,47.13
2023-02-12T03:21:01.490Z,36.78
2023-02-12T03:22:07.299Z,38.03
2023-02-12T03:23:13.162Z,38.40
2023-02-12T03:24:22.179Z,34.50
2023-02-12T03:25:26.876Z,36.47
2023-02-12T03:26:37.590Z,33.65
2023-02-12T03:27:42.023Z,31.67
2023-02-12T03:28:45.164Z,36.42
2023-02-12T03:29:47.393Z,36.03
2023-02-12T03:30:53.767Z,38.95
2023-02-12T03:32:00.728Z,32.75
2023-02-12T03:33:10.521Z,34.75
2023-02-12T03:34:18.822Z,36.72
2023-02-12T03:35:23.585Z,35.90
2023-02-12T03:36:34.547Z,36.33
2023-02-12T03:37:40.293Z,35.45
2023-02-12T03:38:45.777Z,33.63
2023-02-12T03:39:54.676Z,42.45
2023-02-12T03:40:59.877Z,45.40
2023-02-12T03:42:05.644Z,34.58
2023-02-12T03:43:30.677Z,43.72
2023-02-12T03:44:45.406Z,32.58
2023-02-12T03:45:51.372Z,39.30
2023-02-12T03:47:00.990Z,36.63
2023-02-12T03:48:09.155Z,36.67
2023-02-12T03:49:16.500Z,39.80
2023-02-12T03:50:22.034Z,37.03
2023-02-12T03:51:29.713Z,32.80
2023-02-12T03:52:31.528Z,35.40
2023-02-12T03:53:34.329Z,38.58
2023-02-12T03:54:37.110Z,31.10
2023-02-12T03:55:43.737Z,33.90
2023-02-12T03:56:52.086Z,35.05
2023-02-12T03:58:00.746Z,42.92
2023-02-12T03:59:03.881Z,35.88
2023-02-12T04:00:09.742Z,39.30
2023-02-12T04:01:17.494Z,37.67
2023-02-12T04:02:20.596Z,34.95
2023-02-12T04:03:24.695Z,40.72
2023-02-12T04:04:28.182Z,54.97
2023-02-12T04:05:30.058Z,33.13
2023-02-12T04:06:32.818Z,39.50
2023-02-12T04:07:35.378Z,39.47
2023-02-12T04:08:38.114Z,38.42
2023-02-12T04:09:40.043Z,39.20
2023-02-12T04:10:53.836Z,39.90
2023-02-12T04:12:06.190Z,39.92
2023-02-12T04:13:16.979Z,34.72
2023-02-12T04:14:25.237Z,37.10
2023-02-12T04:15:40.161Z,36.58
2023-02-12T04:16:46.212Z,38.45
2023-02-12T04:17:54.881Z,36.00
2023-02-12T04:18:58.226Z,36.00
2023-02-12T04:20:09.512Z,36.80
2023-02-12T04:21:17.185Z,41.78
2023-02-12T04:22:31.140Z,39.80
2023-02-12T04:23:42.261Z,39.30
2023-02-12T04:24:49.108Z,37.50
2023-02-12T04:25:56.853Z,40.15
2023-02-12T04:27:04.989Z,44.40
2023-02-12T04:28:13.287Z,38.65
2023-02-12T04:29:20.488Z,36.08
2023-02-12T04:30:25.084Z,41.67
2023-02-12T04:31:31.831Z,41.38
2023-02-12T04:32:38.775Z,52.90
2023-02-12T04:33:46.017Z,41.92
2023-02-12T04:34:58.954Z,42.03
2023-02-12T04:36:02.482Z,43.70
2023-02-12T04:37:07.885Z,46.38
2023-02-12T04:38:13.298Z,40.38
2023-02-12T04:39:20.308Z,40.35
2023-02-12T04:40:22.584Z,39.47
2023-02-12T04:41:26.448Z,38.05
2023-02-12T04:42:28.266Z,45.65
2023-02-12T04:43:36.501Z,40.72
2023-02-12T04:44:39.974Z,33.28
2023-02-12T04:45:42.987Z,42.47
2023-02-12T04:46:44.810Z,34.40
2023-02-12T04:47:47.961Z,38.78
2023-02-12T04:48:52.547Z,36.85
2023-02-12T04:49:55.336Z,32.80
2023-02-12T04:50:58.537Z,35.75
2023-02-12T04:52:01.360Z,37.33
2023-02-12T04:53:03.109Z,31.50
2023-02-12T04:54:06.083Z,35.50
2023-02-12T04:55:09.290Z,37.22
2023-02-12T04:56:11.528Z,37.70
2023-02-12T04:57:14.347Z,41.10
2023-02-12T04:58:16.524Z,32.33
2023-02-12T04:59:19.268Z,37.45
2023-02-12T05:00:21.665Z,36.20
2023-02-12T05:01:24.699Z,35.13
2023-02-12T05:02:26.582Z,37.22
2023-02-12T05:03:29.385Z,47.65
2023-02-12T05:04:31.149Z,47.60
2023-02-12T05:05:33.965Z,43.00
2023-02-12T05:06:38.068Z,38.97
2023-02-12T05:07:40.827Z,46.58
2023-02-12T05:08:42.615Z,41.15
2023-02-12T05:09:45.444Z,34.20
2023-02-12T05:10:47.262Z,35.55
2023-02-12T05:11:50.234Z,40.50
2023-02-12T05:12:52.391Z,38.42
2023-02-12T05:13:55.463Z,37.58
2023-02-12T05:14:57.466Z,31.95
2023-02-12T05:16:00.912Z,33.00
2023-02-12T05:17:02.804Z,29.60
2023-02-12T05:18:05.936Z,30.35
2023-02-12T05:19:09.434Z,32.80
2023-02-12T05:20:12.984Z,30.77
2023-02-12T05:21:14.828Z,34.33
2023-02-12T05:22:19.074Z,36.00
2023-02-12T05:23:20.821Z,34.05
2023-02-12T05:24:23.566Z,37.10
2023-02-12T05:25:25.404Z,37.42
2023-02-12T05:26:28.151Z,33.10
2023-02-12T05:27:29.914Z,36.90
2023-02-12T05:28:32.850Z,34.63
2023-02-12T05:29:34.729Z,38.90
2023-02-12T05:30:37.532Z,36.28
2023-02-12T05:31:39.511Z,39.22
2023-02-12T05:32:42.346Z,40.08
2023-02-12T05:33:44.567Z,35.85
2023-02-12T05:34:47.387Z,39.03
2023-02-12T05:35:49.885Z,37.45
2023-02-12T05:36:52.729Z,29.08
2023-02-12T05:37:55.929Z,30.63
2023-02-12T05:38:59.756Z,33.20
2023-02-12T05:40:01.580Z,25.92
2023-02-12T05:41:05.779Z,30.85
2023-02-12T05:42:07.625Z,35.53
2023-02-12T05:43:10.390Z,31.35
2023-02-12T05:44:13.747Z,29.83
2023-02-12T05:45:16.614Z,27.75
2023-02-12T05:46:19.761Z,26.27
2023-02-12T05:47:23.079Z,23.42
2023-02-12T05:48:24.913Z,28.92
2023-02-12T05:49:27.779Z,27.63
2023-02-12T05:50:29.672Z,26.23
2023-02-12T05:51:36.301Z,26.20
2023-02-12T05:52:38.090Z,24.40
2023-02-12T05:53:42.925Z,27.63
2023-02-12T05:54:44.771Z,22.80
2023-02-12T05:55:47.597Z,27.08
2023-02-12T05:56:50.425Z,26.15
2023-02-12T05:57:52.344Z,25.20
2023-02-12T05:58:56.715Z,21.50
2023-02-12T05:59:59.489Z,34.20
2023-02-12T06:01:01.313Z,29.98
2023-02-12T06:02:04.918Z,30.98
2023-02-12T06:03:06.890Z,30.40
2023-02-12T06:04:14.892Z,35.42
2023-02-12T06:05:16.911Z,31.73
2023-02-12T06:06:19.988Z,38.25
2023-02-12T06:07:22.974Z,38.10
2023-02-12T06:08:26.150Z,38.85
2023-02-12T06:09:30.697Z,38.83
2023-02-12T06:10:32.455Z,40.30
2023-02-12T06:11:35.222Z,49.13
2023-02-12T06:12:37.995Z,36.72
2023-02-12T06:13:40.208Z,46.42
2023-02-12T06:14:43.249Z,50.17
2023-02-12T06:15:45.166Z,50.40
2023-02-12T06:16:49.628Z,42.63
2023-02-12T06:17:51.449Z,62.17
2023-02-12T06:18:55.567Z,79.72
2023-02-12T06:19:58.295Z,113.43
2023-02-12T06:21:00.073Z,119.60
2023-02-12T06:22:21.240Z,69.53
2023-02-12T06:23:23.912Z,98.93
2023-02-12T06:24:27.078Z,78.93
2023-02-12T06:25:30.740Z,53.35
2023-02-12T06:26:33.764Z,58.03
2023-02-12T06:27:35.570Z,55.65
2023-02-12T06:28:38.631Z,81.53
2023-02-12T06:29:41.490Z,48.08
2023-02-12T06:30:43.482Z,48.70
2023-02-12T06:31:46.563Z,53.80
2023-02-12T06:32:49.493Z,51.53
2023-02-12T06:33:53.208Z,49.38
2023-02-12T06:34:55.188Z,61.05
2023-02-12T06:35:58.179Z,59.80
2023-02-12T06:37:00.139Z,55.65
2023-02-12T06:38:03.186Z,49.03
2023-02-12T06:39:05.111Z,50.22
2023-02-12T06:40:09.256Z,46.50
2023-02-12T06:41:12.527Z,46.13
2023-02-12T06:42:15.413Z,38.97
2023-02-12T06:43:17.366Z,46.85
2023-02-12T06:44:20.167Z,39.08
2023-02-12T06:45:22.150Z,39.50
2023-02-12T06:46:24.920Z,40.78
2023-02-12T06:47:27.678Z,33.95
2023-02-12T06:48:30.872Z,29.40
2023-02-12T06:49:33.670Z,30.38
2023-02-12T06:50:35.577Z,24.35
2023-02-12T06:51:40.339Z,23.75
2023-02-12T06:52:42.188Z,24.70
2023-02-12T06:53:45.982Z,29.63
2023-02-12T06:54:47.795Z,29.85
2023-02-12T06:55:50.782Z,27.42
2023-02-12T06:56:54.385Z,30.10
2023-02-12T06:57:57.097Z,22.08
2023-02-12T06:59:01.046Z,22.48
2023-02-12T07:00:03.936Z,18.92
2023-02-12T07:01:13.324Z,17.55
2023-02-12T07:02:16.398Z,22.75
2023-02-12T07:03:18.204Z,16.63
2023-02-12T07:04:21.595Z,16.08
2023-02-12T07:05:24.558Z,19.85
2023-02-12T07:06:28.036Z,17.23
2023-02-12T07:07:29.907Z,17.00
2023-02-12T07:08:32.714Z,13.70
2023-02-12T07:09:34.595Z,17.65
2023-02-12T07:10:37.327Z,10.52
2023-02-12T07:11:39.269Z,14.65
2023-02-12T07:12:43.473Z,11.05
2023-02-12T07:13:45.611Z,11.07
2023-02-12T07:14:48.375Z,9.93
2023-02-12T07:15:50.338Z,9.40
2023-02-12T07:16:55.667Z,9.80
2023-02-12T07:17:58.722Z,13.68
2023-02-12T07:19:01.909Z,13.90
2023-02-12T07:20:03.839Z,16.42
2023-02-12T07:21:07.715Z,10.68
2023-02-12T07:22:09.646Z,11.88
2023-02-12T07:23:12.434Z,14.20
2023-02-12T07:24:14.855Z,10.73
2023-02-12T07:25:36.328Z,13.57
2023-02-12T07:26:39.811Z,9.18
2023-02-12T07:27:43.946Z,7.07
2023-02-12T07:28:46.124Z,7.28
2023-02-12T07:29:48.844Z,6.35
2023-02-12T07:30:50.936Z,5.15
2023-02-12T07:31:53.827Z,7.50
2023-02-12T07:32:55.838Z,7.93
2023-02-12T07:34:00.247Z,4.95
2023-02-12T07:35:02.123Z,6.75
2023-02-12T07:36:07.133Z,7.28
2023-02-12T07:37:09.913Z,8.18
2023-02-12T07:38:12.040Z,8.70
2023-02-12T07:39:14.902Z,9.43
2023-02-12T07:40:16.872Z,8.82
2023-02-12T07:41:21.508Z,11.27
2023-02-12T07:42:23.304Z,14.48
2023-02-12T07:43:27.980Z,15.02
2023-02-12T07:44:31.367Z,12.32
2023-02-12T07:45:34.181Z,16.38
2023-02-12T07:46:38.046Z,13.55
2023-02-12T07:47:41.172Z,14.35
2023-02-12T07:48:43.117Z,17.90
2023-02-12T07:49:45.847Z,16.15
2023-02-12T07:50:47.667Z,18.70
2023-02-12T07:51:51.074Z,8.27
2023-02-12T07:52:52.854Z,11.40
2023-02-12T07:53:56.054Z,10.50
2023-02-12T07:54:57.842Z,11.48
2023-02-12T07:56:08.553Z,9.70
2023-02-12T07:57:11.350Z,11.55
2023-02-12T07:58:13.168Z,8.75
2023-02-12T07:59:19.718Z,8.27
2023-02-12T08:00:41.051Z,12.50
2023-02-12T08:01:44.092Z,9.70
2023-02-12T08:02:52.670Z,7.50
2023-02-12T08:03:56.189Z,8.05
2023-02-12T08:04:59.719Z,5.80
2023-02-12T08:06:07.457Z,5.35
2023-02-12T08:07:10.299Z,7.72
2023-02-12T08:08:12.069Z,7.10
2023-02-12T08:09:17.296Z,8.45
2023-02-12T08:10:22.295Z,12.95
2023-02-12T08:11:25.398Z,31.00
2023-02-12T08:12:28.137Z,35.63
2023-02-12T08:13:30.220Z,11.45
2023-02-12T08:14:34.288Z,5.93
2023-02-12T08:15:36.086Z,11.48
2023-02-12T08:16:40.393Z,23.85
2023-02-12T08:17:43.506Z,29.40
2023-02-12T08:18:46.826Z,18.90
2023-02-12T08:19:48.743Z,24.65
2023-02-12T08:20:51.553Z,25.65
2023-02-12T08:21:55.400Z,35.08
2023-02-12T08:22:58.198Z,26.48
2023-02-12T08:24:01.255Z,14.75
2023-02-12T08:25:04.051Z,14.32
2023-02-12T08:26:11.103Z,14.35
2023-02-12T08:27:13.917Z,10.38
2023-02-12T08:28:15.723Z,8.77
2023-02-12T08:29:38.497Z,8.80
2023-02-12T08:30:40.639Z,6.18
2023-02-12T08:31:44.840Z,7.60
2023-02-12T08:32:49.256Z,7.15
2023-02-12T08:33:53.379Z,6.68
2023-02-12T08:34:55.358Z,8.48
2023-02-12T08:36:03.669Z,5.38
2023-02-12T08:37:07.481Z,6.80
2023-02-12T08:38:09.247Z,5.57
2023-02-12T08:39:31.760Z,7.50
2023-02-12T08:40:33.951Z,7.95
2023-02-12T08:41:37.238Z,4.68
2023-02-12T08:42:39.021Z,5.40
2023-02-12T08:43:42.502Z,6.68
2023-02-12T08:44:45.588Z,8.15
2023-02-12T08:45:48.421Z,7.32
2023-02-12T08:46:52.996Z,7.72
2023-02-12T08:47:55.243Z,7.78
2023-02-12T08:49:00.094Z,6.88
2023-02-12T08:50:02.933Z,7.05
2023-02-12T08:51:06.751Z,8.57
2023-02-12T08:52:09.512Z,9.23
2023-02-12T08:53:11.464Z,8.55
2023-02-12T08:54:16.791Z,6.20
2023-02-12T08:55:19.553Z,11.65
2023-02-12T08:56:21.602Z,14.55
2023-02-12T08:57:24.392Z,8.73
2023-02-12T08:58:26.313Z,9.00
2023-02-12T08:59:29.816Z,9.70
2023-02-12T09:00:32.968Z,11.00
2023-02-12T09:01:38.535Z,11.05
2023-02-12T09:02:40.503Z,11.52
2023-02-12T09:03:43.949Z,12.57
2023-02-12T09:04:45.704Z,13.88
2023-02-12T09:06:08.917Z,9.63
2023-02-12T09:07:11.645Z,9.07
2023-02-12T09:08:13.409Z,10.75
2023-02-12T09:09:16.597Z,13.70
2023-02-12T09:10:18.525Z,19.40
2023-02-12T09:11:26.721Z,25.90
2023-02-12T09:12:29.545Z,24.30
2023-02-12T09:13:31.366Z,24.67
2023-02-12T09:14:34.150Z,23.48
2023-02-12T09:15:38.348Z,19.42
2023-02-12T09:16:41.366Z,22.50
2023-02-12T09:17:43.690Z,28.88
2023-02-12T09:18:46.555Z,16.67
2023-02-12T09:19:49.544Z,16.17
2023-02-12T09:20:51.295Z,19.55
2023-02-12T09:21:56.788Z,13.18
2023-02-12T09:22:59.104Z,10.10
2023-02-12T09:24:03.442Z,15.48
2023-02-12T09:25:06.509Z,11.88
2023-02-12T09:26:10.811Z,14.10
2023-02-12T09:27:13.561Z,22.00
2023-02-12T09:28:15.531Z,15.27
2023-02-12T09:29:18.351Z,10.55
2023-02-12T09:30:20.281Z,14.57
2023-02-12T09:31:26.980Z,22.65
2023-02-12T09:32:29.460Z,39.08
2023-02-12T09:33:32.213Z,56.85
2023-02-12T09:34:36.018Z,49.83
2023-02-12T09:35:38.509Z,49.13
2023-02-12T09:36:41.236Z,52.65
2023-02-12T09:37:44.834Z,43.92
2023-02-12T09:38:47.665Z,36.67
2023-02-12T09:39:51.315Z,22.90
2023-02-12T09:41:18.763Z,20.75
2023-02-12T09:42:39.044Z,59.70
2023-02-12T09:43:45.524Z,58.50
2023-02-12T09:44:51.152Z,68.55
2023-02-12T09:45:57.796Z,15.73
2023-02-12T09:47:03.707Z,80.88
2023-02-12T09:48:18.104Z,92.25
2023-02-12T09:49:39.232Z,72.00
2023-02-12T09:50:47.185Z,25.05
2023-02-12T09:51:51.576Z,17.15
2023-02-12T09:52:57.210Z,17.15
2023-02-12T09:54:03.400Z,15.15
2023-02-12T09:55:06.643Z,13.68
2023-02-12T09:56:18.367Z,17.10
2023-02-12T09:57:35.730Z,29.00
2023-02-12T09:58:43.771Z,30.67
2023-02-12T09:59:50.043Z,28.65
2023-02-12T10:00:53.105Z,31.27
2023-02-12T10:01:54.914Z,30.73
2023-02-12T10:03:04.970Z,34.28
2023-02-12T10:04:08.781Z,40.10
2023-02-12T10:05:16.956Z,42.63
2023-02-12T10:06:20.485Z,39.30
2023-02-12T10:07:34.152Z,36.42
2023-02-12T10:08:46.921Z,34.58
2023-02-12T10:10:06.997Z,37.75
2023-02-12T10:11:33.957Z,33.15
2023-02-12T10:12:41.105Z,35.35
2023-02-12T10:13:47.470Z,30.73
2023-02-12T10:15:14.705Z,22.83
2023-02-12T10:16:27.670Z,24.98
2023-02-12T10:17:37.340Z,29.08
2023-02-12T10:18:53.665Z,26.90
2023-02-12T10:20:17.202Z,24.75
2023-02-12T10:21:32.329Z,22.85
2023-02-12T10:22:56.141Z,22.88
2023-02-12T10:24:16.464Z,26.25
2023-02-12T10:25:25.301Z,21.65
2023-02-12T10:26:31.205Z,20.52
2023-02-12T10:27:39.996Z,24.45
2023-02-12T10:28:42.525Z,20.92
2023-02-12T10:29:47.427Z,23.08
2023-02-12T10:30:52.336Z,20.00
2023-02-12T10:33:03.848Z,20.42
2023-02-12T10:34:16.651Z,16.02
2023-02-12T10:35:20.228Z,15.73
2023-02-12T10:36:32.455Z,15.20
2023-02-12T10:37:37.928Z,16.50
2023-02-12T10:38:45.246Z,14.35
2023-02-12T10:39:52.103Z,16.13
2023-02-12T10:40:57.961Z,14.88
2023-02-12T10:42:04.230Z,15.63
2023-02-12T10:43:09.089Z,14.05
2023-02-12T10:44:12.885Z,16.80
2023-02-12T10:45:16.561Z,15.52
2023-02-12T10:46:19.322Z,13.55
2023-02-12T10:47:22.569Z,13.55
2023-02-12T10:48:28.466Z,13.75
2023-02-12T10:49:33.763Z,12.13
2023-02-12T10:51:04.398Z,14.55
2023-02-12T10:52:14.332Z,18.02
2023-02-12T10:53:20.854Z,13.60
2023-02-12T10:54:34.380Z,13.23
2023-02-12T10:55:36.754Z,15.48
2023-02-12T10:56:39.595Z,11.63
2023-02-12T10:57:42.402Z,12.20
2023-02-12T10:58:53.382Z,12.20
2023-02-12T10:59:58.157Z,9.02
2023-02-12T11:01:00.400Z,10.73
2023-02-12T11:02:04.828Z,13.43
2023-02-12T11:03:21.203Z,12.40
2023-02-12T11:04:27.048Z,12.82
2023-02-12T11:05:34.798Z,14.40
2023-02-12T11:06:38.953Z,15.82
2023-02-12T11:07:47.902Z,9.88
2023-02-12T11:08:50.977Z,11.32
2023-02-12T11:09:54.738Z,12.82
2023-02-12T11:11:04.442Z,13.15
2023-02-12T11:12:35.692Z,15.35
2023-02-12T11:13:41.078Z,12.48
2023-02-12T11:14:49.098Z,11.40
2023-02-12T11:15:52.610Z,9.30
2023-02-12T11:16:57.615Z,8.05
2023-02-12T11:18:03.726Z,9.32
2023-02-12T11:19:09.777Z,8.65
2023-02-12T11:20:24.705Z,6.57
2023-02-12T11:21:28.961Z,9.98
2023-02-12T11:22:30.990Z,10.23
2023-02-12T11:23:35.397Z,10.15
2023-02-12T11:24:37.744Z,16.83
2023-02-12T11:25:57.349Z,9.73
2023-02-12T11:27:24.040Z,10.20
2023-02-12T11:28:26.228Z,9.00
2023-02-12T11:29:29.158Z,11.82
2023-02-12T11:30:31.610Z,9.48
2023-02-12T11:31:36.913Z,8.70
2023-02-12T11:32:39.139Z,12.65
2023-02-12T11:33:42.568Z,8.98
2023-02-12T11:34:44.351Z,8.35
2023-02-12T11:35:51.837Z,7.68
2023-02-12T11:36:56.283Z,8.13
2023-02-12T11:37:59.190Z,6.53
2023-02-12T11:39:02.047Z,8.10
2023-02-12T11:40:04.650Z,8.90
2023-02-12T11:41:26.157Z,7.45
2023-02-12T11:42:31.034Z,7.28
2023-02-12T11:43:37.285Z,7.15
2023-02-12T11:44:41.551Z,7.80
2023-02-12T11:45:45.453Z,11.10
2023-02-12T11:46:49.672Z,12.40
2023-02-12T11:47:51.800Z,15.32
2023-02-12T11:48:55.914Z,7.57
2023-02-12T11:50:04.938Z,6.57
2023-02-12T11:51:10.238Z,7.40
2023-02-12T11:52:20.451Z,9.93
2023-02-12T11:53:25.703Z,8.45
2023-02-12T11:54:29.687Z,7.43
2023-02-12T11:55:34.058Z,7.28
2023-02-12T11:56:44.213Z,11.70
2023-02-12T11:57:48.884Z,7.55
2023-02-12T11:58:52.984Z,8.85
2023-02-12T11:59:56.415Z,8.88
2023-02-12T12:01:06.301Z,7.55
2023-02-12T12:02:18.878Z,12.85
2023-02-12T12:03:25.208Z,8.07
2023-02-12T12:04:29.048Z,9.82
2023-02-12T12:05:36.850Z,9.55
2023-02-12T12:06:42.845Z,12.27
2023-02-12T12:07:52.262Z,9.65
2023-02-12T12:08:57.969Z,12.45
2023-02-12T12:10:22.288Z,9.32
2023-02-12T12:11:28.136Z,10.38
2023-02-12T12:12:34.931Z,10.05
2023-02-12T12:13:41.921Z,9.68
2023-02-12T12:15:05.594Z,6.60
2023-02-12T12:16:29.956Z,7.15
2023-02-12T12:17:57.314Z,8.23
2023-02-12T12:19:21.808Z,8.13
2023-02-12T12:20:26.867Z,14.43
2023-02-12T12:21:34.362Z,13.55
2023-02-12T12:22:42.655Z,10.98
2023-02-12T12:23:50.069Z,10.30
2023-02-12T12:24:57.502Z,11.85
2023-02-12T12:26:02.437Z,10.57
2023-02-12T12:27:25.087Z,11.23
2023-02-12T12:28:30.812Z,7.28
2023-02-12T12:29:45.814Z,11.20
2023-02-12T12:31:04.080Z,8.90
2023-02-12T12:32:07.479Z,15.35
2023-02-12T12:33:16.272Z,13.48
2023-02-12T12:34:20.601Z,6.18
2023-02-12T12:35:27.275Z,9.93
2023-02-12T12:37:08.820Z,9.63
2023-02-12T12:38:20.325Z,7.53
2023-02-12T12:39:30.200Z,8.77
2023-02-12T12:40:46.002Z,10.57
2023-02-12T12:42:13.494Z,8.32
2023-02-12T12:43:22.760Z,13.70
2023-02-12T12:44:34.846Z,10.15
2023-02-12T12:46:16.183Z,14.52
2023-02-12T12:47:26.267Z,12.10
2023-02-12T12:48:42.212Z,12.18
2023-02-12T12:49:52.187Z,15.60
2023-02-12T12:51:08.045Z,10.98
2023-02-12T12:52:24.742Z,10.75
2023-02-12T12:53:39.150Z,8.68
2023-02-12T12:54:54.565Z,9.63
2023-02-12T12:56:12.002Z,10.93
2023-02-12T12:57:21.234Z,10.35
2023-02-12T12:58:30.241Z,14.80
2023-02-12T12:59:52.805Z,10.82
2023-02-12T13:01:06.751Z,8.85
2023-02-12T13:02:34.741Z,10.73
2023-02-12T13:04:05.510Z,10.10
2023-02-12T13:05:25.154Z,9.25
2023-02-12T13:06:47.970Z,8.82
2023-02-12T13:08:00.106Z,8.98
2023-02-12T13:09:21.986Z,7.63
2023-02-12T13:10:33.077Z,10.52
2023-02-12T13:11:39.789Z,12.13
2023-02-12T13:12:59.824Z,10.07
2023-02-12T13:14:08.428Z,12.45
2023-02-12T13:15:19.612Z,8.93
2023-02-12T13:16:25.414Z,13.93
2023-02-12T13:17:31.968Z,15.98
2023-02-12T13:18:45.628Z,30.73
2023-02-12T13:19:56.743Z,33.95
2023-02-12T13:21:05.309Z,11.73
2023-02-12T13:22:20.199Z,14.15
2023-02-12T13:23:29.658Z,11.98
2023-02-12T13:24:36.614Z,11.93
2023-02-12T13:25:46.760Z,52.47
2023-02-12T13:26:53.696Z,35.35
2023-02-12T13:27:57.069Z,103.18
2023-02-12T13:29:02.476Z,16.35
2023-02-12T13:30:07.192Z,13.82
2023-02-12T13:31:31.810Z,7.25
2023-02-12T13:32:40.605Z,8.13
2023-02-12T13:33:44.015Z,9.75
2023-02-12T13:34:46.943Z,6.35
2023-02-12T13:35:53.607Z,6.97
2023-02-12T13:36:56.093Z,6.97
2023-02-12T13:38:00.238Z,9.75
2023-02-12T13:39:27.626Z,6.57
2023-02-12T13:40:31.714Z,5.47
2023-02-12T13:41:35.454Z,7.78
2023-02-12T13:42:46.425Z,6.65
2023-02-12T13:43:59.884Z,6.32
2023-02-12T13:45:13.617Z,5.88
2023-02-12T13:46:20.478Z,6.70
2023-02-12T13:47:31.225Z,8.07
2023-02-12T13:48:44.657Z,26.02
2023-02-12T13:49:50.152Z,9.45
2023-02-12T13:51:01.149Z,7.78
2023-02-12T13:52:07.748Z,5.43
2023-02-12T13:53:19.468Z,4.68
2023-02-12T13:54:31.133Z,4.70
2023-02-12T13:55:36.412Z,6.63
2023-02-12T13:56:41.920Z,8.45
2023-02-12T13:57:45.164Z,7.97
2023-02-12T13:58:51.451Z,6.28
2023-02-12T13:59:54.769Z,6.65
2023-02-12T14:00:58.740Z,14.85
2023-02-12T14:02:02.509Z,11.95
2023-02-12T14:03:08.930Z,8.95
2023-02-12T14:04:26.686Z,6.38
2023-02-12T14:05:32.829Z,11.43
2023-02-12T14:06:35.342Z,14.27
2023-02-12T14:07:42.888Z,9.95
2023-02-12T14:08:48.164Z,8.52
2023-02-12T14:10:03.247Z,12.82
2023-02-12T14:11:07.826Z,8.93
2023-02-12T14:12:15.284Z,5.07
2023-02-12T14:13:21.364Z,7.10
2023-02-12T14:14:28.669Z,7.22
2023-02-12T14:15:35.123Z,6.07
2023-02-12T14:16:43.483Z,7.85
2023-02-12T14:17:54.268Z,6.95
2023-02-12T14:19:30.600Z,6.32
2023-02-12T14:20:34.281Z,5.93